ACT        NSW        VIC        QLD        SA        WA        TAS        NT        INFO        CALC            by VK5ZD

Past Date/Time: (dd/mm/yyyy hh:mm or blank for current data)    

  Atmospheric Gas Attenuation - ITU Rec 676-11   --------------- dB/100km ---------------
WA Stations Date Time Temp RH % AH g/m3 Dew Point Wind Direction Speed kph Gust kph Barometer mB Rainfall Since 9am 24GHz 47GHz 76GHz 122GHz 134GHz 241GHz
Albany Airport 05/09 04:00 11.2 70 7.1 5.9 15 19 1018 0 16.5 24.4 35.3 92.2 82.1 281.1
Badgingarra 05/09 04:00 10.6 82 8.01 7.7 6 7 1013.1 0 18.5 25.9 39.0 102.3 94.5 324.4
Barimunya 05/09 04:00 18.8 28 4.51 -0.1 13 17 1016.9 0 10.8 18.9 23.3 60.5 45.7 154.1
Barrow Island 05/09 04:00 21.8 70 13.43 16.1 33 39 1016.6 0 29.4 31.5 55.1 145.4 151.4 524.6
Bickley 05/09 04:00 10.9 81 8.06 7.8 6 9 1013.1 0 18.6 25.9 39.0 102.4 94.8 325.5
Boolgeeda 05/09 04:00 17.1 32 4.66 0.3 6 7 1016.5 0 11.1 19.4 24.3 63.0 48.3 163.0
Bridgetown 05/09 04:00 10.7 84 8.25 8.1 0 0 1018.1 0 19.0 26.4 40.2 105.3 98.0 336.7
Broome 05/09 04:00 19.1 92 15.08 17.8 0 0 1015.3 0.2 33.1 35.4 64.5 170.2 181.1 627.8
Bunbury 05/09 04:00 14.6 63 7.88 7.6 13 20 1018.2 0.2 18.0 24.7 36.8 96.4 88.5 303.8
Busselton Airport 05/09 04:00 13.4 69 8.02 7.8 7 9 1017.5 0 18.4 25.2 37.9 99.2 91.6 314.6
Cape Leeuwin 05/09 04:00 14.5 68 8.46 8.7 17 22 1016.7 0 19.3 25.6 39.0 102.4 96.0 330.0
Cape Naturaliste 05/09 04:00 13.7 65 7.7 7.2 26 35 1017.5 0.2 17.7 24.6 36.5 95.5 87.1 299.0
Carnarvon 05/09 04:00 14.2 83 10.14 11.4 17 19 1020.4 0 22.9 28.6 46.3 121.6 119.4 411.8
Christmas Creek 05/09 04:00 19.5 27 4.53 0 11 17 1017.2 0.2 10.8 18.8 23.2 60.1 45.5 153.6
Christmas Island 05/09 04:00 23.3 87 18.19 21 24 39 1015.9 0 39.4 39.4 75.2 198.9 217.7 755.8
Collie East 05/09 04:00 11.6 73 7.59 6.9 6 7 1013.1 0 17.5 24.9 36.8 96.5 87.7 300.9
Coondewanna 05/09 04:00 11.7 39 4.08 -1.8 0 0 1016.9 0 10.1 19.7 23.9 61.9 45.0 150.6
Cunderdin Airport 05/09 04:00 7 94 7.29 6.1 0 0 1020.4 0.2 17.1 26.0 38.1 99.7 89.5 306.4
Curtin 05/09 04:00 17.1 94 13.68 16.1 6 9 1014.3 0 30.3 33.6 59.6 157.2 164.5 569.7
Dalwallinu 05/09 04:00 4.7 92 6.13 3.5 0 0 1020.4 0.4 14.7 24.7 34.3 89.5 76.0 258.7
Derby 05/09 04:00 20.2 94 16.43 19.2 6 9 1015.1 0 35.9 37.5 69.8 184.4 198.9 690.1
Dwellingup 05/09 04:00 10.8 80 7.91 7.5 11 17 1018.7 0.2 18.2 25.8 38.7 101.5 93.3 320.3
Eliwana Airport 05/09 04:00 18.5 30 4.75 0.6 2 4 1013.1 0 11.3 19.1 24.1 62.5 48.3 163.1
Esperance 05/09 04:00 9.8 81 7.52 6.7 17 24 1019.9 0.4 17.5 25.5 37.7 98.6 89.4 306.3
Esperance Airport 05/09 04:00 6.6 91 6.87 5.2 13 15 1020 0 16.2 25.4 36.5 95.4 84.1 287.5
Eucla 05/09 04:00 8.5 82 7 5.6 7 11 1019.1 0 16.4 25.0 36.1 94.5 83.8 286.5
Fitzroy Crossing 05/09 04:00 20 78 13.48 16 9 11 1014.4 0 29.6 32.1 56.5 149.1 155.4 538.5
Forrest 05/09 04:00 8.2 82 6.87 5.3 1019.8 0 16.1 24.9 35.8 93.5 82.4 281.6
Fortescue Dave Forrest 05/09 04:00 19.8 25 4.27 -0.8 15 24 1016.8 0 10.2 18.4 22.3 57.7 42.7 143.5
Garden Island 05/09 04:00 15 67 8.59 8.9 0 0 1018.9 0 19.5 25.7 39.4 103.4 97.2 334.5
Geraldton Airport 05/09 04:00 9.6 92 8.43 8.4 20 24 1020 0.2 19.4 27.1 41.6 109.0 102.1 350.8
Gerangamete (Cfa) 05/09 05:50 12.9 91 10.26 11.5 26 32 1013.1 4.2 23.2 29.0 47.2 124.2 122.4 422.4
Giles* 05/09 05:30 20.4 43 7.61 7.4 20 30 1013.1 0 17.2 22.6 33.1 86.6 78.7 270.3
Gingin Airport 05/09 04:00 13 84 9.53 10.4 6 9 1019.4 0 21.6 27.9 44.3 116.5 112.6 388.1
Golden Grove 05/09 04:00 8.4 92 7.81 7.2 7 9 1020.4 0 18.1 26.5 39.6 103.7 95.0 325.9
Gooseberry Hill 05/09 04:00 12.8 74 8.29 8.3 6 7 1013.1 0 19.0 25.7 39.0 102.4 95.5 328.3
Gudai-Darri Mine 05/09 04:00 21.8 23 4.41 -0.2 20 28 1013.1 0 10.5 18.0 22.1 57.2 42.9 144.6
Halls Creek 05/09 05:30 18.4 56 8.81 9.5 2 11 1014.1 0 19.8 25.0 38.4 100.8 95.5 328.8
Hopetoun North 05/09 04:00 7 82 6.36 4.1 9 13 1019.4 0.2 15.1 24.4 34.2 89.3 76.8 261.8
Iron Bridge Mine 05/09 04:00 17.7 55 8.3 8.6 7 7 1015.2 0 18.8 24.4 36.8 96.6 90.0 309.6
Jacup 05/09 04:00 3.2 89 5.37 1.6 9 11 1019.2 0.6 13.1 23.8 31.7 82.7 67.0 226.9
Jandakot 05/09 04:00 12.7 79 8.79 9.2 9 11 1018.8 0 20.0 26.7 41.4 108.6 102.8 353.8
Kalgoorlie-Boulder 05/09 04:00 6.1 84 6.14 3.6 2 7 1019.9 0 14.6 24.3 33.7 88.0 74.8 254.5
Kalumburu 05/09 05:30 19.1 97 15.9 18.6 2 6 1015.5 0 34.9 37.0 68.3 180.5 193.7 671.6
Karijini North 05/09 04:00 22.4 20 3.97 -1.6 15 20 1015.7 0 9.5 17.5 20.7 53.5 38.3 128.5
Karratha 05/09 04:00 19.6 63 10.63 12.4 17 17 1015.3 0 23.6 27.5 44.9 118.2 117.2 405.1
Katanning Rs 05/09 04:00 5.4 92 6.42 4.2 6 7 1019 0.4 15.3 24.9 35.1 91.8 79.2 269.9
Koolan Island / Koolan Central 05/09 04:00 24 73 15.88 18.9 13 19 1013.1 0 34.4 34.7 63.8 168.7 180.8 627.7
Kununurra Airport 05/09 05:30 19.7 86 14.6 17.3 0 0 1015.3 0 32.0 34.3 61.8 163.0 172.5 597.9
Lake Grace 05/09 04:00 4.5 93 6.12 3.5 6 7 1019.6 0.2 14.7 24.7 34.3 89.6 76.0 258.7
Lancelin (Defence) 05/09 04:00 14.4 78 9.64 10.6 7 9 1019.1 0 21.8 27.6 44.0 115.6 112.1 386.3
Laverton 05/09 04:00 9.1 94 8.34 8.2 0 0 1020 0 19.3 27.1 41.4 108.7 101.5 348.7
Learmonth 05/09 04:00 15.5 90 11.9 13.9 13 17 1019.2 0 26.6 31.2 53.0 139.6 142.1 491.3
Legendre Island 05/09 04:00 22.5 59 11.78 14.1 26 30 1015.3 0 25.9 28.4 47.8 125.9 127.7 442.1
Leinster 05/09 04:00 11.4 67 6.88 5.5 7 9 1018.9 0 16.0 24.0 34.4 89.8 79.2 270.7
Leonora Airport 05/09 04:00 9.6 85 7.79 7.2 0 0 1019.9 0 18.0 26.0 38.9 101.8 93.3 319.9
Lombadina 05/09 04:00 22 94 18.24 21 7 9 1015.2 0 39.6 40.1 76.7 202.9 222.2 771.3
Mandora 05/09 04:00 18.5 89 14.08 16.7 11 15 1014.9 0 31.0 33.8 60.3 159.2 167.4 580.1
Mandurah 05/09 04:00 15.8 61 8.21 8.3 9 17 1018.5 0 18.7 24.9 37.5 98.3 91.3 313.9
Manjimup 05/09 04:00 10.4 73 7.04 5.8 13 19 1017.6 0 16.4 24.5 35.4 92.5 82.2 281.1
Marble Bar 05/09 04:00 18.6 42 6.68 5.5 0 2 1015.3 0 15.3 21.8 30.6 79.9 69.7 238.6
Mardie 05/09 04:00 15.8 47 6.33 4.5 9 11 1016.4 0 14.7 22.0 30.4 79.4 68.1 232.6
Meekatharra 05/09 04:00 12.8 67 7.51 6.8 7 9 1018.7 0 17.3 24.6 36.2 94.7 85.8 294.1
Millendon (Swan Valley) 05/09 04:00 12.4 85 9.29 10 2 6 1019.1 0 21.1 27.7 43.6 114.6 110.1 379.3
Morawa Airport 05/09 04:00 5.3 95 6.59 4.6 0 0 1020.9 0 15.6 25.3 36.0 94.0 81.8 278.9
Mount Keith 05/09 04:00 11.5 64 6.61 4.9 7 9 1019.2 0 15.4 23.6 33.3 86.9 75.6 258.3
Mount Magnet Airport 05/09 04:00 9.8 84 7.8 7.2 11 13 1020 0 18.1 26.0 38.8 101.7 93.2 319.6
Munglinup West 05/09 04:00 4.9 88 5.94 3.1 9 9 1019.8 0.2 14.3 24.3 33.4 87.2 73.2 248.9
Newdegate 05/09 04:00 1.4 91 4.86 0.1 0 0 1019.4 0.2 12.1 23.4 30.4 79.0 61.6 207.8
Newman Airport 05/09 04:00 14.2 35 4.27 -1 9 11 1017.2 0 10.4 19.5 23.9 61.8 45.7 153.5
Norseman Airport 05/09 04:00 3 92 5.48 1.8 0 0 1020.3 0 13.3 24.1 32.3 84.2 68.7 233.0
North Island 05/09 04:00 16.6 59 8.33 8.6 13 19 1019.9 0 18.9 24.9 37.7 98.7 92.0 316.5
Onslow Airport 05/09 04:00 18.4 72 11.32 13.3 24 32 1018.2 0 25.1 29.1 48.6 127.9 128.7 444.9
Paraburdoo 05/09 04:00 16.1 32 4.39 -0.6 7 9 1017.1 0 10.6 19.3 23.7 61.4 45.9 154.6
Pearce 05/09 04:00 13.4 77 8.95 9.5 6 7 1019 0 20.4 26.8 41.7 109.4 104.1 358.3
Perth 05/09 04:00 13.9 69 8.27 8.3 6 11 1019 0.2 18.9 25.5 38.7 101.4 94.4 324.4
Perth Airport 05/09 04:00 13.6 73 8.59 8.9 9 11 1018.8 0.2 19.6 26.1 40.1 105.2 99.0 340.4
Port Hedland 05/09 04:00 17.9 95 14.5 17.1 7 7 1014.9 0 32.0 34.8 62.7 165.6 175.1 606.7
Portable Btsa (Dfes) 05/09 03:50 11.3 87 8.88 9.2 0 0 1013.1 0 20.3 27.1 42.2 110.9 105.5 362.9
Portable Btsd (Dfes) 05/09 03:50 8.2 84 7.04 5.7 7 7 1013.1 0 16.5 24.9 36.2 94.7 84.2 288.0
Portable Btsf (Dfes) 05/09 03:00 13.4 65 7.56 7.1 6 7 1013.1 0 17.4 24.3 35.9 94.0 85.3 292.7
Portable Btsh (Dfes) 05/09 03:50 3.8 99 6.22 3.6 4 6 1013.1 0 14.9 24.8 34.7 90.9 77.7 264.4
Portable Btsj (Dfes) 05/09 03:50 13.7 70 8.29 8.4 4 6 1013.1 0 18.9 25.4 38.6 101.3 94.4 324.6
Portable Btsl (Dfes) 05/09 03:50 0.6 81 4.1 -2.3 4 4 1013.1 0 10.4 22.2 27.3 71.1 51.8 173.2
Portable Btsm (Dfes) 05/09 03:50 13 53 6.01 3.6 0 2 1013.1 0 14.1 22.1 30.2 78.8 66.5 226.5
Portable Btsn (Dfes) 05/09 03:50 8 86 7.11 5.8 4 6 1013.1 0 16.7 25.1 36.5 95.7 85.4 292.1
Portable Btso (Dfes) 05/09 03:50 11.4 72 7.39 6.6 4 6 1013.1 0 17.1 24.6 36.1 94.6 85.3 292.4
Rocky Gully South 05/09 04:00 10.1 71 6.72 5.1 11 15 1013.1 0 15.7 23.9 34.0 89.0 78.0 266.5
Roebourne Airport 05/09 04:00 18.6 68 10.82 12.6 11 11 1015.4 0 24.1 28.1 46.3 121.7 121.3 419.2
Rottnest Island 05/09 04:00 15.9 60 8.13 8.2 15 20 1018.4 0 18.5 24.7 37.2 97.4 90.2 310.0
Salmon Gums Rs 05/09 04:00 3.7 99 6.17 3.6 9 11 1013.1 0 14.8 24.8 34.6 90.4 77.1 262.4
Shannon 05/09 04:00 10.2 83 7.9 7.4 9 11 1013.1 0 18.3 25.8 38.7 101.6 93.5 320.8
Shark Bay Airport 05/09 04:00 11.2 95 9.63 10.4 11 11 1020.1 0 21.9 28.7 45.8 120.4 116.8 402.4
Solomon Airport 05/09 04:00 17.3 28 4.12 -1.4 9 11 1015.8 0 10.0 18.6 22.5 58.1 42.3 142.1
Southern Cross Airport 05/09 04:00 2.9 98 5.79 2.6 0 0 1020.6 0.2 14.0 24.6 33.7 87.8 73.1 248.2
Swanbourne 05/09 04:00 14.2 95 11.6 13.4 9 13 1013.1 0 26.0 30.9 52.2 137.7 139.5 482.0
Telfer 05/09 04:00 22.1 32 6.25 4.7 17 20 1015.6 0 14.3 20.4 27.9 72.8 62.1 212.2
Thevenard Island 05/09 04:00 19.7 71 12.06 14.3 39 44 1017.8 0 26.6 29.9 50.8 133.9 136.5 472.5
Troughton Island 05/09 05:30 25.7 83 19.87 22.6 17 19 1015.4 0 42.7 41.5 80.7 213.6 236.5 821.5
Truscott 05/09 05:30 23.3 92 19.23 21.9 7 9 1015 0 41.6 41.4 80.2 212.1 233.9 812.2
Walpole North 05/09 04:00 11.7 70 7.32 6.4 15 22 1016.7 0 16.9 24.6 35.9 93.8 84.4 289.0
Wandering 05/09 04:00 10.8 73 7.22 6.2 9 13 1013.1 0 16.8 24.5 35.7 93.5 83.8 286.9
Warburton 05/09 05:30 15.6 45 5.98 3.7 9 13 1018.6 0 13.9 21.6 29.4 76.5 64.3 219.1
West Angelas 05/09 04:00 15.6 35 4.65 0.2 9 13 1016.3 0 11.1 19.7 24.7 64.1 49.1 165.5
West Musgrave Airport 05/09 04:00 17.9 40 6.11 4.1 13 17 1013.1 0 14.1 21.1 28.8 75.1 63.7 217.2
Wiluna Airport 05/09 04:00 11.1 69 6.95 5.6 7 9 1018.7 0 16.2 24.2 34.7 90.9 80.3 274.8
Witchcliffe West 05/09 04:00 12.8 72 8.07 7.9 9 15 1017 0 18.5 25.5 38.3 100.5 92.9 319.2
Wyndham Airport 05/09 05:30 21.8 69 13.24 15.9 4 7 1015.1 0 29.0 31.1 54.2 143.0 148.6 514.8
Yampi Sound (Defence) 05/09 04:00 19.8 92 15.71 18.5 2 4 1019.1 0 34.4 36.4 67.0 176.9 189.4 657.0

Last Refresh: 05-Sep-2026 05:43:53

Bureau of Meteorology